KALX/ALX METAR and TAF weather

Enter ICAO airport designator
Station Type Date Time Source
KALX METAR 2019/10/15 08:55 UTC NOAA

KALX 150855Z AUTO 00000KT 10SM BKN041 BKN075 19/17 A3007 RMK AO2 T01900172


Station Type Date Time Source
KALX Decoded METAR 2019/10/15 08:55 UTC NOAA

Alexander City, Thomas C Russell Field Airport, AL, United States (KALX) 32-54-53N 085-57-46W
Oct 15, 2019 - 04:55 AM EDT / 2019.10.15 0855 UTC
Wind: Calm:0
Visibility: 10 mile(s):0
Sky conditions: mostly cloudy
Temperature: 66.2 F (19.0 C)
Dew Point: 63.0 F (17.2 C)
Relative Humidity: 89%
Pressure (altimeter): 30.07 in. Hg (1018 hPa)
ob: KALX 150855Z AUTO 00000KT 10SM BKN041 BKN075 19/17 A3007 RMK AO2 T01900172
cycle: 9

Station Type Date Time Source
KALX TAF UTC NOAA

Error!

Example: see airport list